Terminal Aerodrome Forecast
Issued by NWS Wilmington, OH

Current Version | Previous Version | Graphics & Text | Print | Product List | Glossary On
Versions: 1 2 3 4 5 6 7 8 9 10 11 12 13 14 15 16 17 18 19
000
FTUS41 KILN 011700
TAFDAY
TAF
KDAY 011739Z 0118/0218 22004KT 5SM -SN OVC015
      TEMPO 0119/0123 3/4SM -SN OVC008
     FM012300 29010KT P6SM OVC015
     FM021400 31005KT P6SM SCT020
      TEMPO 0214/0218 BKN020=

USA.gov is the U.S. government's official web portal to all federal, state and local government web resources and services.